createdAt,value
2018-12-20T00:02:17.432Z,20.27
2018-12-20T00:04:44.236Z,19.73
2018-12-20T00:07:10.762Z,18.87
2018-12-20T00:09:37.261Z,19.63
2018-12-20T00:12:03.748Z,19.77
2018-12-20T00:14:30.253Z,19.70
2018-12-20T00:19:57.195Z,18.67
2018-12-20T00:22:23.559Z,19.07
2018-12-20T00:24:50.386Z,19.57
2018-12-20T00:27:16.733Z,19.13
2018-12-20T00:29:43.061Z,19.07
2018-12-20T00:32:09.642Z,18.23
2018-12-20T00:34:36.291Z,18.67
2018-12-20T00:37:02.789Z,18.97
2018-12-20T00:39:29.240Z,18.23
2018-12-20T00:41:55.755Z,18.90
2018-12-20T00:44:22.127Z,19.23
2018-12-20T00:46:48.552Z,19.47
2018-12-20T00:49:14.994Z,18.43
2018-12-20T00:51:41.469Z,19.07
2018-12-20T00:54:07.824Z,17.97
2018-12-20T00:56:34.218Z,17.60
2018-12-20T00:59:00.596Z,18.47
2018-12-20T01:01:27.117Z,16.20
2018-12-20T01:03:53.567Z,16.03
2018-12-20T01:06:19.899Z,18.27
2018-12-20T01:08:46.302Z,15.97
2018-12-20T01:11:12.771Z,16.43
2018-12-20T01:13:39.194Z,16.17
2018-12-20T01:16:05.734Z,15.37
2018-12-20T01:18:32.318Z,17.13
2018-12-20T01:20:59.242Z,17.07
2018-12-20T01:23:25.700Z,16.23
2018-12-20T01:25:52.243Z,14.77
2018-12-20T01:28:18.869Z,15.23
2018-12-20T01:30:45.282Z,15.03
2018-12-20T01:33:11.659Z,13.90
2018-12-20T01:35:38.149Z,14.90
2018-12-20T01:38:04.633Z,14.93
2018-12-20T01:40:31.328Z,14.57
2018-12-20T01:42:57.936Z,13.27
2018-12-20T01:45:24.895Z,12.57
2018-12-20T01:47:51.485Z,13.83
2018-12-20T01:53:12.405Z,13.57
2018-12-20T01:55:38.862Z,11.20
2018-12-20T01:58:05.529Z,11.80
2018-12-20T02:00:32.231Z,10.97
2018-12-20T02:02:58.684Z,12.00
2018-12-20T02:05:25.081Z,12.23
2018-12-20T02:07:51.401Z,13.40
2018-12-20T02:10:17.926Z,12.67
2018-12-20T02:12:44.321Z,13.47
2018-12-20T02:15:10.949Z,10.60
2018-12-20T02:17:37.376Z,11.80
2018-12-20T02:20:04.393Z,12.20
2018-12-20T02:22:30.924Z,10.87
2018-12-20T02:24:57.348Z,9.13
2018-12-20T02:27:23.799Z,9.37
2018-12-20T02:29:50.242Z,10.47
2018-12-20T02:32:16.697Z,8.57
2018-12-20T02:34:43.182Z,9.90
2018-12-20T02:37:09.659Z,8.70
2018-12-20T02:39:36.200Z,10.17
2018-12-20T02:42:02.866Z,10.07
2018-12-20T02:44:29.488Z,9.77
2018-12-20T02:46:55.831Z,9.23
2018-12-20T02:49:22.186Z,8.80
2018-12-20T02:51:48.787Z,9.67
2018-12-20T02:54:15.280Z,8.37
2018-12-20T02:56:41.965Z,10.03
2018-12-20T02:59:08.636Z,9.23
2018-12-20T03:01:35.107Z,8.70
2018-12-20T03:04:01.641Z,9.37
2018-12-20T03:06:28.038Z,8.80
2018-12-20T03:08:54.486Z,9.13
2018-12-20T03:11:20.952Z,8.63
2018-12-20T03:13:47.402Z,8.37
2018-12-20T03:16:13.799Z,8.60
2018-12-20T03:18:40.470Z,9.00
2018-12-20T03:21:07.012Z,9.50
2018-12-20T03:23:33.509Z,9.03
2018-12-20T03:25:59.966Z,9.50
2018-12-20T03:28:26.913Z,8.57
2018-12-20T03:30:53.713Z,8.53
2018-12-20T03:33:20.147Z,9.73
2018-12-20T03:35:46.655Z,9.27
2018-12-20T03:38:13.063Z,10.43
2018-12-20T03:40:39.559Z,9.17
2018-12-20T03:43:06.077Z,10.00
2018-12-20T03:45:32.589Z,9.43
2018-12-20T03:47:59.172Z,9.20
2018-12-20T03:50:25.685Z,10.33
2018-12-20T03:52:52.249Z,9.27
2018-12-20T03:55:18.808Z,9.73
2018-12-20T03:57:45.535Z,9.97
2018-12-20T04:00:12.216Z,9.40
2018-12-20T04:02:38.699Z,10.10
2018-12-20T04:05:05.414Z,8.43
2018-12-20T04:07:32.267Z,9.23
2018-12-20T04:09:59.009Z,10.57
2018-12-20T04:12:25.350Z,8.50
2018-12-20T04:14:51.864Z,9.10
2018-12-20T04:17:18.476Z,8.83
2018-12-20T04:19:45.002Z,9.23
2018-12-20T04:22:11.502Z,8.80
2018-12-20T04:24:38.076Z,9.70
2018-12-20T04:27:04.473Z,9.13
2018-12-20T04:29:30.930Z,8.97
2018-12-20T04:31:57.335Z,9.43
2018-12-20T04:34:24.086Z,8.70
2018-12-20T04:36:50.636Z,9.57
2018-12-20T04:39:17.072Z,9.60
2018-12-20T04:41:43.510Z,9.63
2018-12-20T04:44:10.004Z,9.67
2018-12-20T04:46:36.477Z,8.77
2018-12-20T04:49:03.271Z,10.07
2018-12-20T04:51:29.778Z,9.77
2018-12-20T04:53:56.211Z,9.67
2018-12-20T04:56:22.744Z,8.87
2018-12-20T04:58:49.246Z,10.00
2018-12-20T05:01:15.907Z,8.80
2018-12-20T05:03:42.405Z,11.20
2018-12-20T05:06:08.842Z,10.33
2018-12-20T05:08:35.403Z,9.77
2018-12-20T05:11:02.284Z,9.63
2018-12-20T05:13:28.972Z,10.77
2018-12-20T05:15:56.336Z,9.17
2018-12-20T05:18:23.165Z,9.30
2018-12-20T05:20:49.576Z,8.23
2018-12-20T05:23:16.124Z,8.67
2018-12-20T05:25:42.789Z,9.67
2018-12-20T05:28:09.375Z,8.23
2018-12-20T05:30:35.914Z,8.17
2018-12-20T05:33:02.494Z,7.27
2018-12-20T05:35:28.979Z,7.43
2018-12-20T05:37:55.574Z,8.33
2018-12-20T05:40:22.002Z,11.20
2018-12-20T05:42:48.582Z,7.03
2018-12-20T05:45:15.202Z,8.47
2018-12-20T05:47:41.836Z,7.47
2018-12-20T05:50:08.450Z,7.87
2018-12-20T05:52:35.022Z,7.97
2018-12-20T05:55:08.605Z,6.67
2018-12-20T05:57:35.001Z,7.17
2018-12-20T06:00:01.534Z,7.00
2018-12-20T06:02:28.115Z,6.90
2018-12-20T06:04:54.878Z,8.77
2018-12-20T06:07:21.367Z,8.60
2018-12-20T06:09:47.978Z,8.30
2018-12-20T06:12:14.758Z,6.83
2018-12-20T06:14:41.658Z,7.40
2018-12-20T06:17:08.407Z,7.67
2018-12-20T06:19:35.004Z,7.10
2018-12-20T06:22:01.618Z,8.27
2018-12-20T06:24:28.163Z,9.03
2018-12-20T06:26:54.504Z,6.90
2018-12-20T06:29:20.888Z,7.27
2018-12-20T06:31:47.262Z,9.43
2018-12-20T06:34:13.665Z,7.77
2018-12-20T06:36:40.051Z,9.37
2018-12-20T06:39:06.881Z,7.37
2018-12-20T06:41:33.205Z,7.83
2018-12-20T06:44:06.994Z,6.17
2018-12-20T06:46:28.064Z,8.60
2018-12-20T06:48:54.425Z,8.27
2018-12-20T06:51:21.036Z,7.13
2018-12-20T06:53:47.406Z,8.33
2018-12-20T06:56:14.351Z,7.67
2018-12-20T06:58:40.775Z,8.23
2018-12-20T07:01:07.180Z,8.30
2018-12-20T07:03:34.093Z,7.40
2018-12-20T07:06:00.546Z,8.13
2018-12-20T07:08:26.976Z,8.73
2018-12-20T07:10:53.535Z,8.33
2018-12-20T07:13:20.059Z,8.60
2018-12-20T07:15:47.088Z,7.83
2018-12-20T07:18:13.485Z,8.97
2018-12-20T07:20:39.961Z,9.83
2018-12-20T07:23:06.634Z,7.63
2018-12-20T07:25:33.321Z,7.80
2018-12-20T07:27:59.738Z,7.30
2018-12-20T07:30:26.149Z,7.70
2018-12-20T07:32:52.813Z,8.53
2018-12-20T07:35:19.154Z,9.40
2018-12-20T07:37:45.584Z,9.67
2018-12-20T07:40:12.041Z,8.43
2018-12-20T07:42:38.461Z,7.57
2018-12-20T07:45:06.683Z,8.37
2018-12-20T07:47:33.189Z,8.30
2018-12-20T07:49:59.606Z,10.20
2018-12-20T07:52:25.972Z,8.83
2018-12-20T07:54:52.461Z,8.93
2018-12-20T07:57:18.875Z,8.33
2018-12-20T07:59:45.463Z,8.00
2018-12-20T08:02:12.015Z,10.17
2018-12-20T08:04:38.384Z,8.40
2018-12-20T08:07:04.742Z,8.70
2018-12-20T08:09:31.123Z,9.10
2018-12-20T08:11:57.522Z,8.23
2018-12-20T08:14:23.967Z,7.63
2018-12-20T08:16:50.319Z,9.43
2018-12-20T08:19:16.666Z,8.53
2018-12-20T08:21:43.011Z,8.23
2018-12-20T08:24:09.337Z,14.90
2018-12-20T08:26:35.723Z,9.13
2018-12-20T08:29:02.089Z,8.70
2018-12-20T08:31:28.463Z,7.53
2018-12-20T08:33:54.839Z,10.07
2018-12-20T08:36:21.255Z,7.90
2018-12-20T08:38:47.666Z,7.20
2018-12-20T08:41:14.387Z,8.27
2018-12-20T08:43:41.353Z,7.30
2018-12-20T08:46:07.739Z,9.07
2018-12-20T08:48:34.062Z,9.30
2018-12-20T08:51:00.402Z,10.70
2018-12-20T08:53:26.809Z,8.63
2018-12-20T08:55:53.198Z,8.23
2018-12-20T08:58:19.609Z,8.10
2018-12-20T09:00:45.949Z,7.37
2018-12-20T09:03:12.563Z,8.03
2018-12-20T09:05:38.980Z,9.10
2018-12-20T09:08:05.507Z,10.93
2018-12-20T09:10:33.314Z,8.23
2018-12-20T09:12:59.801Z,8.50
2018-12-20T09:15:26.173Z,7.93
2018-12-20T09:17:52.765Z,8.40
2018-12-20T09:20:19.193Z,8.30
2018-12-20T09:22:45.724Z,9.37
2018-12-20T09:25:12.126Z,9.27
2018-12-20T09:27:38.553Z,9.43
2018-12-20T09:30:06.188Z,7.93
2018-12-20T09:32:32.568Z,9.13
2018-12-20T09:34:59.016Z,9.23
2018-12-20T09:37:25.451Z,8.67
2018-12-20T09:39:52.033Z,7.60
2018-12-20T09:42:18.557Z,7.37
2018-12-20T09:44:45.488Z,9.50
2018-12-20T09:47:18.120Z,9.27
2018-12-20T09:49:44.447Z,8.87
2018-12-20T09:52:10.890Z,8.20
2018-12-20T09:54:37.346Z,10.57
2018-12-20T09:57:03.803Z,8.60
2018-12-20T09:59:30.156Z,8.83
2018-12-20T10:01:56.637Z,9.20
2018-12-20T10:04:23.143Z,7.67
2018-12-20T10:06:49.528Z,7.40
2018-12-20T10:09:16.284Z,8.80
2018-12-20T10:11:42.756Z,9.17
2018-12-20T10:14:09.339Z,10.10
2018-12-20T10:16:35.863Z,8.93
2018-12-20T10:19:02.387Z,8.30
2018-12-20T10:21:29.299Z,7.77
2018-12-20T10:23:55.675Z,10.67
2018-12-20T10:26:22.197Z,9.13
2018-12-20T10:28:48.631Z,8.63
2018-12-20T10:31:15.057Z,9.07
2018-12-20T10:33:41.602Z,8.27
2018-12-20T10:36:08.044Z,9.13
2018-12-20T10:38:34.442Z,8.27
2018-12-20T10:41:00.942Z,9.23
2018-12-20T10:43:27.331Z,8.77
2018-12-20T10:45:54.046Z,8.13
2018-12-20T10:48:20.503Z,9.77
2018-12-20T10:50:46.931Z,9.37
2018-12-20T10:53:13.335Z,9.00
2018-12-20T10:55:39.781Z,10.07
2018-12-20T10:58:06.326Z,10.10
2018-12-20T11:00:34.757Z,9.17
2018-12-20T11:03:22.452Z,9.47
2018-12-20T11:05:54.732Z,8.93
2018-12-20T11:08:22.129Z,8.83
2018-12-20T11:10:51.148Z,9.83
2018-12-20T11:13:23.665Z,9.77
2018-12-20T11:15:50.029Z,8.23
2018-12-20T11:18:16.380Z,9.87
2018-12-20T11:20:42.699Z,8.57
2018-12-20T11:23:09.178Z,11.23
2018-12-20T11:25:35.651Z,10.00
2018-12-20T11:28:02.202Z,10.00
2018-12-20T11:30:28.567Z,8.93
2018-12-20T11:32:55.796Z,9.07
2018-12-20T11:35:22.227Z,10.40
2018-12-20T11:37:48.638Z,10.07
2018-12-20T11:40:15.197Z,9.37
2018-12-20T11:42:41.564Z,8.80
2018-12-20T11:45:08.116Z,8.60
2018-12-20T11:47:34.569Z,11.50
2018-12-20T11:50:01.895Z,9.07
2018-12-20T11:52:28.677Z,8.23
2018-12-20T11:57:49.555Z,9.10
2018-12-20T12:00:16.088Z,7.93
2018-12-20T12:02:42.457Z,8.60
2018-12-20T12:05:08.833Z,7.57
2018-12-20T12:07:35.220Z,8.50
2018-12-20T12:10:02.617Z,9.17
2018-12-20T12:12:29.032Z,7.90
2018-12-20T12:14:55.724Z,9.07
2018-12-20T12:17:22.174Z,7.73
2018-12-20T12:19:48.625Z,8.90
2018-12-20T12:22:15.024Z,9.60
2018-12-20T12:27:36.027Z,8.87
2018-12-20T12:30:03.279Z,8.90
2018-12-20T12:32:29.677Z,8.20
2018-12-20T12:34:56.281Z,8.80
2018-12-20T12:37:22.713Z,10.30
2018-12-20T12:39:49.046Z,9.10
2018-12-20T12:42:15.527Z,8.70
2018-12-20T12:44:41.913Z,9.47
2018-12-20T12:47:08.311Z,11.77
2018-12-20T12:49:34.745Z,8.90
2018-12-20T12:52:01.167Z,10.20
2018-12-20T12:54:27.566Z,8.00
2018-12-20T12:56:54.177Z,9.57
2018-12-20T12:59:20.565Z,10.60
2018-12-20T13:01:46.887Z,8.60
2018-12-20T13:04:13.945Z,10.40
2018-12-20T13:06:40.551Z,10.80
2018-12-20T13:09:07.109Z,9.93
2018-12-20T13:11:33.804Z,9.87
2018-12-20T13:14:00.303Z,9.83
2018-12-20T13:16:26.665Z,10.77
2018-12-20T13:18:53.142Z,11.70
2018-12-20T13:21:19.579Z,12.20
2018-12-20T13:23:46.045Z,11.67
2018-12-20T13:26:12.585Z,11.40
2018-12-20T13:28:39.092Z,11.83
2018-12-20T13:31:05.526Z,11.27
2018-12-20T13:33:31.982Z,9.93
2018-12-20T13:35:58.504Z,11.77
2018-12-20T13:38:25.013Z,10.40
2018-12-20T13:40:51.471Z,11.03
2018-12-20T13:43:17.863Z,10.17
2018-12-20T13:45:44.228Z,10.30
2018-12-20T13:48:10.854Z,10.30
2018-12-20T13:50:37.241Z,10.83
2018-12-20T13:53:03.682Z,10.10
2018-12-20T13:55:30.098Z,9.57
2018-12-20T13:57:56.606Z,10.07
2018-12-20T14:03:16.363Z,12.23
2018-12-20T14:05:42.725Z,11.67
2018-12-20T14:11:03.631Z,10.77
2018-12-20T14:13:29.982Z,10.83
2018-12-20T14:15:56.468Z,11.00
2018-12-20T14:18:30.660Z,11.10
2018-12-20T14:20:51.228Z,12.13
2018-12-20T14:23:17.609Z,10.30
2018-12-20T14:25:43.971Z,11.33
2018-12-20T14:28:10.301Z,10.50
2018-12-20T14:30:36.649Z,10.37
2018-12-20T14:33:03.077Z,11.13
2018-12-20T14:35:29.463Z,11.07
2018-12-20T14:37:55.872Z,12.43
2018-12-20T14:40:22.440Z,13.27
2018-12-20T14:42:48.813Z,10.23
2018-12-20T14:45:15.201Z,11.57
2018-12-20T14:47:41.614Z,10.97
2018-12-20T14:50:08.296Z,12.13
2018-12-20T14:52:34.720Z,11.93
2018-12-20T14:55:01.092Z,12.77
2018-12-20T14:57:27.448Z,11.17
2018-12-20T14:59:53.817Z,11.27
2018-12-20T15:02:20.179Z,11.90
2018-12-20T15:04:46.580Z,12.07
2018-12-20T15:07:13.026Z,12.73
2018-12-20T15:09:39.347Z,11.30
2018-12-20T15:12:05.760Z,11.47
2018-12-20T15:14:32.128Z,11.40
2018-12-20T15:16:58.507Z,10.37
2018-12-20T15:19:25.770Z,10.77
2018-12-20T15:21:52.148Z,10.67
2018-12-20T15:24:18.603Z,12.23
2018-12-20T15:26:45.047Z,12.27
2018-12-20T15:29:11.504Z,13.20
2018-12-20T15:31:37.954Z,11.03
2018-12-20T15:34:04.323Z,10.70
2018-12-20T15:36:32.826Z,12.03
2018-12-20T15:38:59.224Z,12.83
2018-12-20T15:41:25.749Z,12.07
2018-12-20T15:43:52.308Z,14.23
2018-12-20T15:46:18.748Z,12.57
2018-12-20T15:48:45.120Z,11.33
2018-12-20T15:51:11.461Z,13.53
2018-12-20T15:53:37.837Z,11.53
2018-12-20T15:56:04.313Z,10.57
2018-12-20T15:58:30.718Z,12.03
2018-12-20T16:00:57.279Z,11.43
2018-12-20T16:03:23.710Z,11.33
2018-12-20T16:05:50.354Z,13.23
2018-12-20T16:08:16.727Z,11.30
2018-12-20T16:10:43.127Z,12.70
2018-12-20T16:13:09.443Z,11.90
2018-12-20T16:15:35.860Z,12.70
2018-12-20T16:18:02.391Z,13.33
2018-12-20T16:20:28.772Z,13.83
2018-12-20T16:22:55.382Z,12.77
2018-12-20T16:25:21.800Z,11.47
2018-12-20T16:27:48.105Z,9.50
2018-12-20T16:30:14.440Z,10.50
2018-12-20T16:32:41.629Z,11.67
2018-12-20T16:35:23.027Z,11.63
2018-12-20T16:37:49.388Z,11.10
2018-12-20T16:40:15.815Z,11.50
2018-12-20T16:42:42.321Z,14.57
2018-12-20T16:45:08.632Z,12.37
2018-12-20T16:47:35.037Z,11.17
2018-12-20T16:50:01.417Z,10.17
2018-12-20T16:52:27.825Z,13.77
2018-12-20T16:54:54.489Z,11.53
2018-12-20T16:57:20.847Z,12.70
2018-12-20T16:59:47.211Z,12.57
2018-12-20T17:02:13.583Z,13.47
2018-12-20T17:04:40.059Z,12.70
2018-12-20T17:07:06.465Z,11.57
2018-12-20T17:09:32.895Z,13.17
2018-12-20T17:11:59.276Z,12.53
2018-12-20T17:14:25.707Z,14.00
2018-12-20T17:16:52.077Z,11.93
2018-12-20T17:19:22.060Z,10.47
2018-12-20T17:21:46.825Z,11.63
2018-12-20T17:24:13.517Z,11.70
2018-12-20T17:26:39.873Z,11.00
2018-12-20T17:29:06.343Z,10.60
2018-12-20T17:31:32.880Z,9.73
2018-12-20T17:33:59.385Z,10.57
2018-12-20T17:36:25.774Z,11.87
2018-12-20T17:38:52.303Z,9.63
2018-12-20T17:41:18.663Z,10.07
2018-12-20T17:43:44.974Z,10.83
2018-12-20T17:46:11.409Z,11.83
2018-12-20T17:48:37.823Z,12.40
2018-12-20T17:51:04.172Z,11.27
2018-12-20T17:53:30.509Z,12.30
2018-12-20T17:55:56.984Z,11.60
2018-12-20T17:58:23.571Z,10.67
2018-12-20T18:00:50.987Z,10.43
2018-12-20T18:03:17.870Z,11.30
2018-12-20T18:05:44.276Z,11.37
2018-12-20T18:08:10.635Z,11.00
2018-12-20T18:10:37.347Z,10.20
2018-12-20T18:13:03.701Z,10.93
2018-12-20T18:15:30.107Z,11.10
2018-12-20T18:17:56.512Z,9.37
2018-12-20T18:20:22.953Z,10.33
2018-12-20T18:22:49.391Z,8.77
2018-12-20T18:25:15.745Z,9.97
2018-12-20T18:27:42.151Z,10.33
2018-12-20T18:30:08.883Z,9.23
2018-12-20T18:32:35.253Z,8.93
2018-12-20T18:35:01.935Z,10.23
2018-12-20T18:37:28.472Z,9.10
2018-12-20T18:39:55.430Z,10.27
2018-12-20T18:42:21.937Z,9.77
2018-12-20T18:44:48.505Z,10.63
2018-12-20T18:47:14.883Z,11.03
2018-12-20T18:49:47.558Z,11.03
2018-12-20T18:52:09.747Z,11.03
2018-12-20T18:54:39.006Z,11.77
2018-12-20T18:57:05.581Z,10.73
2018-12-20T18:59:31.977Z,10.43
2018-12-20T19:01:58.555Z,9.87
2018-12-20T19:04:25.107Z,10.33
2018-12-20T19:06:51.530Z,10.23
2018-12-20T19:09:17.873Z,10.10
2018-12-20T19:11:44.361Z,10.07
2018-12-20T19:14:11.389Z,10.40
2018-12-20T19:16:37.981Z,11.27
2018-12-20T19:19:04.519Z,10.73
2018-12-20T19:21:31.335Z,9.63
2018-12-20T19:23:57.933Z,10.13
2018-12-20T19:26:24.499Z,9.43
2018-12-20T19:28:51.034Z,11.07
2018-12-20T19:31:17.978Z,11.23
2018-12-20T19:33:59.850Z,10.53
2018-12-20T19:36:26.585Z,10.20
2018-12-20T19:38:52.988Z,10.97
2018-12-20T19:41:19.431Z,9.77
2018-12-20T19:43:45.911Z,10.83
2018-12-20T19:46:12.298Z,11.37
2018-12-20T19:48:38.837Z,10.33
2018-12-20T19:51:05.462Z,10.03
2018-12-20T19:53:31.851Z,10.80
2018-12-20T19:55:58.331Z,10.10
2018-12-20T19:58:24.764Z,11.37
2018-12-20T20:00:51.198Z,11.10
2018-12-20T20:03:17.628Z,10.70
2018-12-20T20:05:43.981Z,10.37
2018-12-20T20:08:10.408Z,10.60
2018-12-20T20:10:36.771Z,10.20
2018-12-20T20:13:03.181Z,9.47
2018-12-20T20:15:29.501Z,11.43
2018-12-20T20:17:55.919Z,10.83
2018-12-20T20:20:22.338Z,10.60
2018-12-20T20:22:48.828Z,9.63
2018-12-20T20:25:15.246Z,11.23
2018-12-20T20:27:41.676Z,10.53
2018-12-20T20:30:09.881Z,10.07
2018-12-20T20:32:36.496Z,10.80
2018-12-20T20:35:04.060Z,10.73
2018-12-20T20:37:30.431Z,9.67
2018-12-20T20:39:56.801Z,10.17
2018-12-20T20:42:23.147Z,10.80
2018-12-20T20:44:49.558Z,11.07
2018-12-20T20:47:15.960Z,9.57
2018-12-20T20:49:42.313Z,10.00
2018-12-20T20:52:08.881Z,10.33
2018-12-20T20:54:35.516Z,11.13
2018-12-20T20:57:02.022Z,10.10
2018-12-20T20:59:28.589Z,12.20
2018-12-20T21:01:55.741Z,10.03
2018-12-20T21:04:22.335Z,9.63
2018-12-20T21:06:48.777Z,9.47
2018-12-20T21:09:15.372Z,9.73
2018-12-20T21:11:41.897Z,9.67
2018-12-20T21:14:08.513Z,10.33
2018-12-20T21:16:34.971Z,9.30
2018-12-20T21:19:01.390Z,8.83
2018-12-20T21:21:27.760Z,8.80
2018-12-20T21:23:54.542Z,8.87
2018-12-20T21:26:20.970Z,9.07
2018-12-20T21:28:47.524Z,8.60
2018-12-20T21:31:14.176Z,9.30
2018-12-20T21:33:40.590Z,8.60
2018-12-20T21:36:07.170Z,9.47
2018-12-20T21:38:33.570Z,9.63
2018-12-20T21:41:00.006Z,9.60
2018-12-20T21:43:26.410Z,8.93
2018-12-20T21:45:52.816Z,8.07
2018-12-20T21:48:19.237Z,9.67
2018-12-20T21:50:46.318Z,8.90
2018-12-20T21:53:12.753Z,9.50
2018-12-20T21:55:39.197Z,9.73
2018-12-20T21:58:05.788Z,9.00
2018-12-20T22:00:32.153Z,9.80
2018-12-20T22:02:58.589Z,9.73
2018-12-20T22:05:25.240Z,9.03
2018-12-20T22:07:51.640Z,9.10
2018-12-20T22:10:18.048Z,9.13
2018-12-20T22:12:44.444Z,8.23
2018-12-20T22:15:10.871Z,9.43
2018-12-20T22:17:38.083Z,9.60
2018-12-20T22:20:04.892Z,9.40
2018-12-20T22:22:31.357Z,9.57
2018-12-20T22:24:57.712Z,8.33
2018-12-20T22:27:24.132Z,8.80
2018-12-20T22:29:50.465Z,8.23
2018-12-20T22:32:16.816Z,8.43
2018-12-20T22:34:43.156Z,8.47
2018-12-20T22:37:09.669Z,9.73
2018-12-20T22:39:36.071Z,9.27
2018-12-20T22:42:02.573Z,8.00
2018-12-20T22:44:28.996Z,9.70
2018-12-20T22:46:55.439Z,8.90
2018-12-20T22:49:21.864Z,9.87
2018-12-20T22:51:48.240Z,8.63
2018-12-20T22:54:14.653Z,10.43
2018-12-20T22:56:41.034Z,9.77
2018-12-20T22:59:07.445Z,8.43
2018-12-20T23:01:34.104Z,8.57
2018-12-20T23:04:00.743Z,8.83
2018-12-20T23:06:27.156Z,9.07
2018-12-20T23:08:53.461Z,9.10
2018-12-20T23:11:19.881Z,9.37
2018-12-20T23:13:46.343Z,10.03
2018-12-20T23:16:12.782Z,10.53
2018-12-20T23:18:39.200Z,7.90
2018-12-20T23:21:05.721Z,7.93
2018-12-20T23:23:32.128Z,9.73
2018-12-20T23:25:58.596Z,9.97
2018-12-20T23:28:25.228Z,9.57
2018-12-20T23:30:51.764Z,9.37
2018-12-20T23:33:18.183Z,9.37
2018-12-20T23:35:44.632Z,11.83
2018-12-20T23:38:11.226Z,9.17
2018-12-20T23:40:37.752Z,8.87
2018-12-20T23:43:04.129Z,10.80
2018-12-20T23:45:30.549Z,10.20
2018-12-20T23:47:56.962Z,9.50
2018-12-20T23:50:23.327Z,7.77
2018-12-20T23:52:49.788Z,9.97
2018-12-20T23:55:16.139Z,9.53
2018-12-20T23:57:42.586Z,9.67
